Mexico, IN (46958)

5:38 PM EDT on May 22, 2015 (GMT -0400)
Windsor Forest | | Change Station
CLOSE
Current Station
Personal Weather Station
Location: Logansport, IN
Elevation: 669 ft
Nearby Weather Stations

Elev 669 ft 40.76 °N, 86.30 °W | Updated 3 seconds ago

Clear
Clear
74.7 °F
Feels Like 77 °F
N
4.6
Wind Variable Wind from East
Gusts 4.6 mph

Today
High -- | Low -- °F
--% Chance of Precip.
Yesterday
High -- | Low -- °F
Precip. -- in
6:21 AM 9:01 PM
Waxing Crescent, 24% visible
Pressure 30.20 in
Visibility 10.0 miles
Clouds Clear
Heat Index 77 °F
Dew Point 47 °F
Humidity 37%
Rainfall 0.00 in
Snow Depth Not available.
UV 6 out of 12
Pollen 9.30 out of 12
Air Quality Not available.
Flu Activity Sporadic
METAR KGUS 222058Z AUTO 33008KT 270V010 10SM CLR 23/04 A3019 RMK AO2 SLP225 T02280044 50001

More Conditions Fewer Conditions

Pressure 30.20 in
Visibility 10.0 miles
Clouds Clear
Heat Index 77 °F
Dew Point 47 °F
Humidity 37%
Rainfall 0.00 in
Snow Depth Not available.
UV 6 out of 12
Pollen 9.30 out of 12
Air Quality Not available.
Flu Activity Sporadic
METAR KGUS 222058Z AUTO 33008KT 270V010 10SM CLR 23/04 A3019 RMK AO2 SLP225 T02280044 50001

More Conditions Fewer Conditions

10-Day Weather Forecast

Almanac

Astronomy

May. 22, 2015 Rise Set
Actual Time
Civil Twilight
Nautical Twilight
Astronomical Twilight
Moon
Length of Visible Light
Length of Day
Tomorrow will be .
, % of the Moon is Illuminated

Today's Extremes

State Highs State Lows

Community

WunderPhotos

Upload Photos

1,823,314 photos uploaded!

WunderBlogs® & News

Nearby

Air Quality

  Air Quality AQ Index Pollutant
Not available.

Snow Depth

Station Depth Elevation

Earthquake Activity

City Distance Mag. Time & Date
Minimum magnitude displayed is 2.5.

Coastal Water Temperatures

Place Temperature

Stations

Nearby Weather Stations

Station Location Temp. Windchill Dew Point Humidity Wind Precip. Elev Updated Type